sensor_id;sensor_type;location;lat;lon;timestamp;temperature;humidity
8261;DHT22;64115;50.170;8.242;2023-03-13T00:00:29;6.90;99.90
8261;DHT22;64115;50.170;8.242;2023-03-13T00:02:56;6.90;99.90
8261;DHT22;64115;50.170;8.242;2023-03-13T00:05:23;6.90;99.90
8261;DHT22;64115;50.170;8.242;2023-03-13T00:07:51;6.90;99.90
8261;DHT22;64115;50.170;8.242;2023-03-13T00:10:17;6.80;99.90
8261;DHT22;64115;50.170;8.242;2023-03-13T00:12:44;6.80;99.90
8261;DHT22;64115;50.170;8.242;2023-03-13T00:15:13;6.90;99.90
8261;DHT22;64115;50.170;8.242;2023-03-13T00:17:40;6.90;99.90
8261;DHT22;64115;50.170;8.242;2023-03-13T00:20:08;6.90;99.90
8261;DHT22;64115;50.170;8.242;2023-03-13T00:22:36;6.90;99.90
8261;DHT22;64115;50.170;8.242;2023-03-13T00:25:03;6.90;99.90
8261;DHT22;64115;50.170;8.242;2023-03-13T00:27:32;6.90;99.90
8261;DHT22;64115;50.170;8.242;2023-03-13T00:29:59;6.90;99.90
8261;DHT22;64115;50.170;8.242;2023-03-13T00:32:28;6.90;99.90
8261;DHT22;64115;50.170;8.242;2023-03-13T00:34:55;6.90;99.90
8261;DHT22;64115;50.170;8.242;2023-03-13T00:37:22;7.00;99.90
8261;DHT22;64115;50.170;8.242;2023-03-13T00:39:49;7.00;99.90
8261;DHT22;64115;50.170;8.242;2023-03-13T00:42:16;7.00;99.90
8261;DHT22;64115;50.170;8.242;2023-03-13T00:44:43;7.00;99.90
8261;DHT22;64115;50.170;8.242;2023-03-13T00:47:10;7.00;99.90
8261;DHT22;64115;50.170;8.242;2023-03-13T00:49:39;7.00;99.90
8261;DHT22;64115;50.170;8.242;2023-03-13T00:52:06;7.10;99.90
8261;DHT22;64115;50.170;8.242;2023-03-13T00:54:33;7.00;99.90
8261;DHT22;64115;50.170;8.242;2023-03-13T00:57:00;7.00;99.90
8261;DHT22;64115;50.170;8.242;2023-03-13T00:59:28;7.00;99.90
8261;DHT22;64115;50.170;8.242;2023-03-13T01:01:55;7.00;99.90
8261;DHT22;64115;50.170;8.242;2023-03-13T01:04:22;7.00;99.90
8261;DHT22;64115;50.170;8.242;2023-03-13T01:06:51;7.00;99.90
8261;DHT22;64115;50.170;8.242;2023-03-13T01:09:18;7.10;99.90
8261;DHT22;64115;50.170;8.242;2023-03-13T01:11:45;7.00;99.90
8261;DHT22;64115;50.170;8.242;2023-03-13T01:14:14;7.00;99.90
8261;DHT22;64115;50.170;8.242;2023-03-13T01:16:42;7.00;99.90
8261;DHT22;64115;50.170;8.242;2023-03-13T01:19:11;7.10;99.90
8261;DHT22;64115;50.170;8.242;2023-03-13T01:21:38;7.10;99.90
8261;DHT22;64115;50.170;8.242;2023-03-13T01:24:08;7.10;99.90
8261;DHT22;64115;50.170;8.242;2023-03-13T01:26:35;7.00;99.90
8261;DHT22;64115;50.170;8.242;2023-03-13T01:29:05;7.10;99.90
8261;DHT22;64115;50.170;8.242;2023-03-13T01:31:34;7.00;99.90
8261;DHT22;64115;50.170;8.242;2023-03-13T01:34:03;7.00;99.90
8261;DHT22;64115;50.170;8.242;2023-03-13T01:36:31;6.90;99.90
8261;DHT22;64115;50.170;8.242;2023-03-13T01:39:00;6.90;99.90
8261;DHT22;64115;50.170;8.242;2023-03-13T01:41:29;6.90;99.90
8261;DHT22;64115;50.170;8.242;2023-03-13T01:43:57;6.80;99.90
8261;DHT22;64115;50.170;8.242;2023-03-13T01:46:25;6.80;99.90
8261;DHT22;64115;50.170;8.242;2023-03-13T01:48:56;6.80;99.90
8261;DHT22;64115;50.170;8.242;2023-03-13T01:51:26;6.80;99.90
8261;DHT22;64115;50.170;8.242;2023-03-13T01:53:59;6.80;99.90
8261;DHT22;64115;50.170;8.242;2023-03-13T01:56:34;6.80;99.90
8261;DHT22;64115;50.170;8.242;2023-03-13T01:59:03;6.80;99.90
8261;DHT22;64115;50.170;8.242;2023-03-13T02:01:30;6.80;99.90
8261;DHT22;64115;50.170;8.242;2023-03-13T02:03:58;6.80;99.90
8261;DHT22;64115;50.170;8.242;2023-03-13T02:06:28;6.80;99.90
8261;DHT22;64115;50.170;8.242;2023-03-13T02:09:00;6.80;99.90
8261;DHT22;64115;50.170;8.242;2023-03-13T02:11:41;6.90;99.90
8261;DHT22;64115;50.170;8.242;2023-03-13T02:14:10;6.90;99.90
8261;DHT22;64115;50.170;8.242;2023-03-13T02:16:38;6.90;99.90
8261;DHT22;64115;50.170;8.242;2023-03-13T02:19:12;6.90;99.90
8261;DHT22;64115;50.170;8.242;2023-03-13T02:21:46;6.90;99.90
8261;DHT22;64115;50.170;8.242;2023-03-13T02:24:23;7.00;99.90
8261;DHT22;64115;50.170;8.242;2023-03-13T02:26:54;7.00;99.90
8261;DHT22;64115;50.170;8.242;2023-03-13T02:29:24;7.10;99.90
8261;DHT22;64115;50.170;8.242;2023-03-13T02:31:51;7.10;99.90
8261;DHT22;64115;50.170;8.242;2023-03-13T02:34:21;7.10;99.90
8261;DHT22;64115;50.170;8.242;2023-03-13T02:36:51;7.20;99.90
8261;DHT22;64115;50.170;8.242;2023-03-13T02:39:19;7.20;99.90
8261;DHT22;64115;50.170;8.242;2023-03-13T02:41:47;7.20;99.90
8261;DHT22;64115;50.170;8.242;2023-03-13T02:44:16;7.20;99.90
8261;DHT22;64115;50.170;8.242;2023-03-13T02:46:45;7.20;99.90
8261;DHT22;64115;50.170;8.242;2023-03-13T02:49:21;7.20;99.90
8261;DHT22;64115;50.170;8.242;2023-03-13T02:51:50;7.20;99.90
8261;DHT22;64115;50.170;8.242;2023-03-13T02:54:21;7.20;99.90
8261;DHT22;64115;50.170;8.242;2023-03-13T02:56:52;7.20;99.90
8261;DHT22;64115;50.170;8.242;2023-03-13T02:59:23;7.20;99.90
8261;DHT22;64115;50.170;8.242;2023-03-13T03:01:50;7.30;99.90
8261;DHT22;64115;50.170;8.242;2023-03-13T03:04:19;7.30;99.90
8261;DHT22;64115;50.170;8.242;2023-03-13T03:06:47;7.30;99.90
8261;DHT22;64115;50.170;8.242;2023-03-13T03:09:15;7.30;99.90
8261;DHT22;64115;50.170;8.242;2023-03-13T03:11:42;7.30;99.90
8261;DHT22;64115;50.170;8.242;2023-03-13T03:14:11;7.30;99.90
8261;DHT22;64115;50.170;8.242;2023-03-13T03:16:39;7.30;99.90
8261;DHT22;64115;50.170;8.242;2023-03-13T03:19:07;7.30;99.90
8261;DHT22;64115;50.170;8.242;2023-03-13T03:21:35;7.30;99.90
8261;DHT22;64115;50.170;8.242;2023-03-13T03:24:03;7.30;99.90
8261;DHT22;64115;50.170;8.242;2023-03-13T03:26:30;7.30;99.90
8261;DHT22;64115;50.170;8.242;2023-03-13T03:28:57;7.30;99.90
8261;DHT22;64115;50.170;8.242;2023-03-13T03:31:24;7.30;99.90
8261;DHT22;64115;50.170;8.242;2023-03-13T03:33:52;7.30;99.90
8261;DHT22;64115;50.170;8.242;2023-03-13T03:36:21;7.30;99.90
8261;DHT22;64115;50.170;8.242;2023-03-13T03:38:49;7.30;99.90
8261;DHT22;64115;50.170;8.242;2023-03-13T03:41:16;7.30;99.90
8261;DHT22;64115;50.170;8.242;2023-03-13T03:43:45;7.30;99.90
8261;DHT22;64115;50.170;8.242;2023-03-13T03:46:14;7.40;99.90
8261;DHT22;64115;50.170;8.242;2023-03-13T03:48:41;7.40;99.90
8261;DHT22;64115;50.170;8.242;2023-03-13T03:51:24;7.40;99.90
8261;DHT22;64115;50.170;8.242;2023-03-13T03:53:52;7.40;99.90
8261;DHT22;64115;50.170;8.242;2023-03-13T03:56:19;7.40;99.90
8261;DHT22;64115;50.170;8.242;2023-03-13T03:58:46;7.40;99.90
8261;DHT22;64115;50.170;8.242;2023-03-13T04:01:13;7.40;99.90
8261;DHT22;64115;50.170;8.242;2023-03-13T04:03:40;7.40;99.90
8261;DHT22;64115;50.170;8.242;2023-03-13T04:06:07;7.50;99.90
8261;DHT22;64115;50.170;8.242;2023-03-13T04:08:36;7.50;99.90
8261;DHT22;64115;50.170;8.242;2023-03-13T04:11:04;7.50;99.90
8261;DHT22;64115;50.170;8.242;2023-03-13T04:13:31;7.50;99.90
8261;DHT22;64115;50.170;8.242;2023-03-13T04:15:58;7.60;99.90
8261;DHT22;64115;50.170;8.242;2023-03-13T04:18:25;7.60;99.90
8261;DHT22;64115;50.170;8.242;2023-03-13T04:21:00;7.60;99.90
8261;DHT22;64115;50.170;8.242;2023-03-13T04:23:27;7.60;99.90
8261;DHT22;64115;50.170;8.242;2023-03-13T04:25:56;7.70;99.90
8261;DHT22;64115;50.170;8.242;2023-03-13T04:28:23;7.70;99.90
8261;DHT22;64115;50.170;8.242;2023-03-13T04:30:50;7.70;99.90
8261;DHT22;64115;50.170;8.242;2023-03-13T04:33:21;7.70;99.90
8261;DHT22;64115;50.170;8.242;2023-03-13T04:35:48;7.70;99.90
8261;DHT22;64115;50.170;8.242;2023-03-13T04:38:15;7.80;99.90
8261;DHT22;64115;50.170;8.242;2023-03-13T04:40:42;7.80;99.90
8261;DHT22;64115;50.170;8.242;2023-03-13T04:43:11;7.80;99.90
8261;DHT22;64115;50.170;8.242;2023-03-13T04:45:38;7.80;99.90
8261;DHT22;64115;50.170;8.242;2023-03-13T04:48:06;7.80;99.90
8261;DHT22;64115;50.170;8.242;2023-03-13T04:50:33;7.80;99.90
8261;DHT22;64115;50.170;8.242;2023-03-13T04:53:00;7.80;99.90
8261;DHT22;64115;50.170;8.242;2023-03-13T04:55:27;7.90;99.90
8261;DHT22;64115;50.170;8.242;2023-03-13T04:57:54;7.90;99.90
8261;DHT22;64115;50.170;8.242;2023-03-13T05:00:22;7.90;99.90
8261;DHT22;64115;50.170;8.242;2023-03-13T05:02:49;7.90;99.90
8261;DHT22;64115;50.170;8.242;2023-03-13T05:05:17;7.90;99.90
8261;DHT22;64115;50.170;8.242;2023-03-13T05:07:44;8.00;99.90
8261;DHT22;64115;50.170;8.242;2023-03-13T05:10:11;8.10;99.90
8261;DHT22;64115;50.170;8.242;2023-03-13T05:12:38;8.10;99.90
8261;DHT22;64115;50.170;8.242;2023-03-13T05:15:07;8.10;99.90
8261;DHT22;64115;50.170;8.242;2023-03-13T05:17:36;8.10;99.90
8261;DHT22;64115;50.170;8.242;2023-03-13T05:20:03;8.10;99.90
8261;DHT22;64115;50.170;8.242;2023-03-13T05:22:32;8.20;99.90
8261;DHT22;64115;50.170;8.242;2023-03-13T05:24:59;8.20;99.90
8261;DHT22;64115;50.170;8.242;2023-03-13T05:27:26;8.20;99.90
8261;DHT22;64115;50.170;8.242;2023-03-13T05:29:53;8.30;99.90
8261;DHT22;64115;50.170;8.242;2023-03-13T05:32:20;8.30;99.90
8261;DHT22;64115;50.170;8.242;2023-03-13T05:34:49;8.40;99.90
8261;DHT22;64115;50.170;8.242;2023-03-13T05:37:16;8.40;99.90
8261;DHT22;64115;50.170;8.242;2023-03-13T05:39:43;8.40;99.90
8261;DHT22;64115;50.170;8.242;2023-03-13T05:42:10;8.40;99.90
8261;DHT22;64115;50.170;8.242;2023-03-13T05:44:37;8.40;99.90
8261;DHT22;64115;50.170;8.242;2023-03-13T05:47:05;8.40;99.90
8261;DHT22;64115;50.170;8.242;2023-03-13T05:49:32;8.40;99.90
8261;DHT22;64115;50.170;8.242;2023-03-13T05:52:01;8.40;99.90
8261;DHT22;64115;50.170;8.242;2023-03-13T05:54:28;8.50;99.90
8261;DHT22;64115;50.170;8.242;2023-03-13T05:56:55;8.50;99.90
8261;DHT22;64115;50.170;8.242;2023-03-13T05:59:22;8.50;99.90
8261;DHT22;64115;50.170;8.242;2023-03-13T06:01:49;8.50;99.90
8261;DHT22;64115;50.170;8.242;2023-03-13T06:04:16;8.60;99.90
8261;DHT22;64115;50.170;8.242;2023-03-13T06:06:43;8.50;99.90
8261;DHT22;64115;50.170;8.242;2023-03-13T06:09:13;8.60;99.90
8261;DHT22;64115;50.170;8.242;2023-03-13T06:11:40;8.60;99.90
8261;DHT22;64115;50.170;8.242;2023-03-13T06:14:07;8.60;99.90
8261;DHT22;64115;50.170;8.242;2023-03-13T06:16:35;8.60;99.90
8261;DHT22;64115;50.170;8.242;2023-03-13T06:19:02;8.60;99.90
8261;DHT22;64115;50.170;8.242;2023-03-13T06:21:29;8.60;99.90
8261;DHT22;64115;50.170;8.242;2023-03-13T06:23:56;8.60;99.90
8261;DHT22;64115;50.170;8.242;2023-03-13T06:26:25;8.70;99.90
8261;DHT22;64115;50.170;8.242;2023-03-13T06:28:52;8.70;99.90
8261;DHT22;64115;50.170;8.242;2023-03-13T06:31:19;8.70;99.90
8261;DHT22;64115;50.170;8.242;2023-03-13T06:33:47;8.70;99.90
8261;DHT22;64115;50.170;8.242;2023-03-13T06:36:14;8.70;99.90
8261;DHT22;64115;50.170;8.242;2023-03-13T06:38:41;8.70;99.90
8261;DHT22;64115;50.170;8.242;2023-03-13T06:41:08;8.80;99.90
8261;DHT22;64115;50.170;8.242;2023-03-13T06:43:36;8.90;99.90
8261;DHT22;64115;50.170;8.242;2023-03-13T06:46:05;8.90;99.90
8261;DHT22;64115;50.170;8.242;2023-03-13T06:48:32;8.90;99.90
8261;DHT22;64115;50.170;8.242;2023-03-13T06:51:00;9.00;99.90
8261;DHT22;64115;50.170;8.242;2023-03-13T06:53:27;9.00;99.90
8261;DHT22;64115;50.170;8.242;2023-03-13T06:55:54;9.10;99.90
8261;DHT22;64115;50.170;8.242;2023-03-13T06:58:21;9.10;99.90
8261;DHT22;64115;50.170;8.242;2023-03-13T07:00:50;9.20;99.90
8261;DHT22;64115;50.170;8.242;2023-03-13T07:03:17;9.20;99.90
8261;DHT22;64115;50.170;8.242;2023-03-13T07:05:44;9.30;99.90
8261;DHT22;64115;50.170;8.242;2023-03-13T07:08:11;9.30;99.90
8261;DHT22;64115;50.170;8.242;2023-03-13T07:10:41;9.30;99.90
8261;DHT22;64115;50.170;8.242;2023-03-13T07:13:09;9.30;99.90
8261;DHT22;64115;50.170;8.242;2023-03-13T07:15:36;9.30;99.90
8261;DHT22;64115;50.170;8.242;2023-03-13T07:18:05;9.30;99.90
8261;DHT22;64115;50.170;8.242;2023-03-13T07:20:32;9.40;99.90
8261;DHT22;64115;50.170;8.242;2023-03-13T07:22:59;9.40;99.90
8261;DHT22;64115;50.170;8.242;2023-03-13T07:25:26;9.40;99.90
8261;DHT22;64115;50.170;8.242;2023-03-13T07:27:54;9.40;99.90
8261;DHT22;64115;50.170;8.242;2023-03-13T07:30:21;9.50;99.90
8261;DHT22;64115;50.170;8.242;2023-03-13T07:32:48;9.60;99.90
8261;DHT22;64115;50.170;8.242;2023-03-13T07:35:17;9.60;99.90
8261;DHT22;64115;50.170;8.242;2023-03-13T07:37:45;9.70;99.90
8261;DHT22;64115;50.170;8.242;2023-03-13T07:40:12;9.70;99.90
8261;DHT22;64115;50.170;8.242;2023-03-13T07:42:39;9.70;99.90
8261;DHT22;64115;50.170;8.242;2023-03-13T07:45:07;9.80;99.90
8261;DHT22;64115;50.170;8.242;2023-03-13T07:47:35;9.80;99.90
8261;DHT22;64115;50.170;8.242;2023-03-13T07:50:02;9.80;99.90
8261;DHT22;64115;50.170;8.242;2023-03-13T07:52:31;9.80;99.90
8261;DHT22;64115;50.170;8.242;2023-03-13T07:54:57;9.80;99.90
8261;DHT22;64115;50.170;8.242;2023-03-13T07:57:25;9.90;99.90
8261;DHT22;64115;50.170;8.242;2023-03-13T07:59:52;9.90;99.90
8261;DHT22;64115;50.170;8.242;2023-03-13T08:02:19;9.90;99.90
8261;DHT22;64115;50.170;8.242;2023-03-13T08:04:46;10.00;99.90
8261;DHT22;64115;50.170;8.242;2023-03-13T08:07:13;10.00;99.90
8261;DHT22;64115;50.170;8.242;2023-03-13T08:09:41;10.10;99.90
8261;DHT22;64115;50.170;8.242;2023-03-13T08:12:08;10.20;99.90
8261;DHT22;64115;50.170;8.242;2023-03-13T08:14:35;10.30;99.90
8261;DHT22;64115;50.170;8.242;2023-03-13T08:17:02;10.30;99.90
8261;DHT22;64115;50.170;8.242;2023-03-13T08:19:29;10.40;99.90
8261;DHT22;64115;50.170;8.242;2023-03-13T08:21:56;10.50;99.90
8261;DHT22;64115;50.170;8.242;2023-03-13T08:24:24;10.50;99.90
8261;DHT22;64115;50.170;8.242;2023-03-13T08:26:52;10.50;99.90
8261;DHT22;64115;50.170;8.242;2023-03-13T08:29:20;10.50;99.90
8261;DHT22;64115;50.170;8.242;2023-03-13T08:31:47;10.50;99.90
8261;DHT22;64115;50.170;8.242;2023-03-13T08:34:17;10.60;99.90
8261;DHT22;64115;50.170;8.242;2023-03-13T08:36:45;10.60;99.90
8261;DHT22;64115;50.170;8.242;2023-03-13T08:39:13;10.50;99.90
8261;DHT22;64115;50.170;8.242;2023-03-13T08:41:41;10.50;99.90
8261;DHT22;64115;50.170;8.242;2023-03-13T08:44:12;10.40;99.90
8261;DHT22;64115;50.170;8.242;2023-03-13T08:46:40;10.50;99.90
8261;DHT22;64115;50.170;8.242;2023-03-13T08:49:08;10.50;99.90
8261;DHT22;64115;50.170;8.242;2023-03-13T08:51:36;10.50;99.90
8261;DHT22;64115;50.170;8.242;2023-03-13T08:54:04;10.60;99.90
8261;DHT22;64115;50.170;8.242;2023-03-13T08:56:31;10.60;99.90
8261;DHT22;64115;50.170;8.242;2023-03-13T08:59:00;10.60;99.90
8261;DHT22;64115;50.170;8.242;2023-03-13T09:01:30;10.60;99.90
8261;DHT22;64115;50.170;8.242;2023-03-13T09:03:58;10.60;99.90
8261;DHT22;64115;50.170;8.242;2023-03-13T09:06:25;10.70;99.90
8261;DHT22;64115;50.170;8.242;2023-03-13T09:08:54;10.70;99.90
8261;DHT22;64115;50.170;8.242;2023-03-13T09:11:22;10.70;99.90
8261;DHT22;64115;50.170;8.242;2023-03-13T09:13:50;10.60;99.90
8261;DHT22;64115;50.170;8.242;2023-03-13T09:16:19;10.60;99.90
8261;DHT22;64115;50.170;8.242;2023-03-13T09:18:49;10.60;99.90
8261;DHT22;64115;50.170;8.242;2023-03-13T09:21:18;10.50;99.90
8261;DHT22;64115;50.170;8.242;2023-03-13T09:23:45;10.50;99.90
8261;DHT22;64115;50.170;8.242;2023-03-13T09:26:13;10.60;99.90
8261;DHT22;64115;50.170;8.242;2023-03-13T09:28:41;10.60;99.90
8261;DHT22;64115;50.170;8.242;2023-03-13T09:31:10;10.70;99.90
8261;DHT22;64115;50.170;8.242;2023-03-13T09:33:38;10.90;99.90
8261;DHT22;64115;50.170;8.242;2023-03-13T09:36:08;11.00;99.90
8261;DHT22;64115;50.170;8.242;2023-03-13T09:38:36;11.20;99.90
8261;DHT22;64115;50.170;8.242;2023-03-13T09:41:19;11.20;99.90
8261;DHT22;64115;50.170;8.242;2023-03-13T09:43:50;11.10;99.90
8261;DHT22;64115;50.170;8.242;2023-03-13T09:46:22;11.10;99.90
8261;DHT22;64115;50.170;8.242;2023-03-13T09:48:54;11.00;99.90
8261;DHT22;64115;50.170;8.242;2023-03-13T09:51:27;10.90;99.90
8261;DHT22;64115;50.170;8.242;2023-03-13T09:53:58;10.90;99.90
8261;DHT22;64115;50.170;8.242;2023-03-13T09:56:30;10.90;99.90
8261;DHT22;64115;50.170;8.242;2023-03-13T09:59:05;11.00;99.90
8261;DHT22;64115;50.170;8.242;2023-03-13T10:01:38;11.00;99.90
8261;DHT22;64115;50.170;8.242;2023-03-13T10:04:18;10.90;99.90
8261;DHT22;64115;50.170;8.242;2023-03-13T10:06:52;10.90;99.90
8261;DHT22;64115;50.170;8.242;2023-03-13T10:09:22;10.80;99.90
8261;DHT22;64115;50.170;8.242;2023-03-13T10:11:57;10.90;99.90
8261;DHT22;64115;50.170;8.242;2023-03-13T10:14:29;10.90;99.90
8261;DHT22;64115;50.170;8.242;2023-03-13T10:17:03;10.90;99.90
8261;DHT22;64115;50.170;8.242;2023-03-13T10:19:36;10.80;99.90
8261;DHT22;64115;50.170;8.242;2023-03-13T10:22:12;10.90;99.90
8261;DHT22;64115;50.170;8.242;2023-03-13T10:24:44;10.80;99.90
8261;DHT22;64115;50.170;8.242;2023-03-13T10:27:14;10.90;99.90
8261;DHT22;64115;50.170;8.242;2023-03-13T10:29:41;11.00;99.90
8261;DHT22;64115;50.170;8.242;2023-03-13T10:32:12;11.00;99.90
8261;DHT22;64115;50.170;8.242;2023-03-13T10:34:51;11.10;99.90
8261;DHT22;64115;50.170;8.242;2023-03-13T10:37:25;11.10;99.90
8261;DHT22;64115;50.170;8.242;2023-03-13T10:39:52;11.10;99.90
8261;DHT22;64115;50.170;8.242;2023-03-13T10:42:23;11.10;99.90
8261;DHT22;64115;50.170;8.242;2023-03-13T10:44:57;11.10;99.90
8261;DHT22;64115;50.170;8.242;2023-03-13T10:47:25;11.20;99.90
8261;DHT22;64115;50.170;8.242;2023-03-13T10:49:55;11.10;99.90
8261;DHT22;64115;50.170;8.242;2023-03-13T10:52:44;11.10;99.90
8261;DHT22;64115;50.170;8.242;2023-03-13T10:55:15;11.10;99.90
8261;DHT22;64115;50.170;8.242;2023-03-13T10:57:53;11.10;99.90
8261;DHT22;64115;50.170;8.242;2023-03-13T11:00:34;11.00;99.90
8261;DHT22;64115;50.170;8.242;2023-03-13T11:03:05;11.10;99.90
8261;DHT22;64115;50.170;8.242;2023-03-13T11:05:37;11.10;99.90
8261;DHT22;64115;50.170;8.242;2023-03-13T11:08:19;11.10;99.90
8261;DHT22;64115;50.170;8.242;2023-03-13T11:10:55;11.00;99.90
8261;DHT22;64115;50.170;8.242;2023-03-13T11:13:33;11.00;99.90
8261;DHT22;64115;50.170;8.242;2023-03-13T11:16:07;10.90;99.90
8261;DHT22;64115;50.170;8.242;2023-03-13T11:18:40;10.80;99.90
8261;DHT22;64115;50.170;8.242;2023-03-13T11:21:16;10.80;99.90
8261;DHT22;64115;50.170;8.242;2023-03-13T11:23:53;10.80;99.90
8261;DHT22;64115;50.170;8.242;2023-03-13T11:26:26;10.70;99.90
8261;DHT22;64115;50.170;8.242;2023-03-13T11:28:57;10.60;99.90
8261;DHT22;64115;50.170;8.242;2023-03-13T11:31:33;10.70;99.90
8261;DHT22;64115;50.170;8.242;2023-03-13T11:34:05;10.70;99.90
8261;DHT22;64115;50.170;8.242;2023-03-13T11:36:37;10.70;99.90
8261;DHT22;64115;50.170;8.242;2023-03-13T11:39:30;10.70;99.90
8261;DHT22;64115;50.170;8.242;2023-03-13T11:42:02;10.70;99.90
8261;DHT22;64115;50.170;8.242;2023-03-13T11:44:40;10.70;99.90
8261;DHT22;64115;50.170;8.242;2023-03-13T11:47:18;10.70;99.90
8261;DHT22;64115;50.170;8.242;2023-03-13T11:50:05;10.70;99.90
8261;DHT22;64115;50.170;8.242;2023-03-13T11:52:46;10.70;99.90
8261;DHT22;64115;50.170;8.242;2023-03-13T11:55:27;10.60;99.90
8261;DHT22;64115;50.170;8.242;2023-03-13T11:58:05;10.60;99.90
8261;DHT22;64115;50.170;8.242;2023-03-13T12:00:36;10.60;99.90
8261;DHT22;64115;50.170;8.242;2023-03-13T12:03:12;10.60;99.90
8261;DHT22;64115;50.170;8.242;2023-03-13T12:05:44;10.60;99.90
8261;DHT22;64115;50.170;8.242;2023-03-13T12:08:16;10.50;99.90
8261;DHT22;64115;50.170;8.242;2023-03-13T12:10:47;10.50;99.90
8261;DHT22;64115;50.170;8.242;2023-03-13T12:13:21;10.50;99.90
8261;DHT22;64115;50.170;8.242;2023-03-13T12:15:52;10.50;99.90
8261;DHT22;64115;50.170;8.242;2023-03-13T12:18:23;10.60;99.90
8261;DHT22;64115;50.170;8.242;2023-03-13T12:20:57;10.50;99.90
8261;DHT22;64115;50.170;8.242;2023-03-13T12:23:32;10.50;99.90
8261;DHT22;64115;50.170;8.242;2023-03-13T12:26:07;10.60;99.90
8261;DHT22;64115;50.170;8.242;2023-03-13T12:28:42;10.60;99.90
8261;DHT22;64115;50.170;8.242;2023-03-13T12:31:17;10.60;99.90
8261;DHT22;64115;50.170;8.242;2023-03-13T12:33:51;10.60;99.90
8261;DHT22;64115;50.170;8.242;2023-03-13T12:36:23;10.60;99.90
8261;DHT22;64115;50.170;8.242;2023-03-13T12:38:55;10.60;99.90
8261;DHT22;64115;50.170;8.242;2023-03-13T12:41:32;10.60;99.90
8261;DHT22;64115;50.170;8.242;2023-03-13T12:44:08;10.70;99.90
8261;DHT22;64115;50.170;8.242;2023-03-13T12:46:45;10.80;99.90
8261;DHT22;64115;50.170;8.242;2023-03-13T12:49:27;11.00;99.90
8261;DHT22;64115;50.170;8.242;2023-03-13T12:52:20;11.10;99.90
8261;DHT22;64115;50.170;8.242;2023-03-13T12:54:58;11.20;99.90
8261;DHT22;64115;50.170;8.242;2023-03-13T12:57:59;11.30;99.90
8261;DHT22;64115;50.170;8.242;2023-03-13T13:00:34;11.30;99.90
8261;DHT22;64115;50.170;8.242;2023-03-13T13:03:18;11.40;99.90
8261;DHT22;64115;50.170;8.242;2023-03-13T13:05:59;11.50;99.90
8261;DHT22;64115;50.170;8.242;2023-03-13T13:08:32;11.70;99.90
8261;DHT22;64115;50.170;8.242;2023-03-13T13:17:55;12.10;99.90
8261;DHT22;64115;50.170;8.242;2023-03-13T13:20:35;12.10;99.90
8261;DHT22;64115;50.170;8.242;2023-03-13T13:23:30;12.10;99.90
8261;DHT22;64115;50.170;8.242;2023-03-13T13:32:44;12.00;99.90
8261;DHT22;64115;50.170;8.242;2023-03-13T13:38:27;12.10;99.90
8261;DHT22;64115;50.170;8.242;2023-03-13T13:41:03;12.30;99.90
8261;DHT22;64115;50.170;8.242;2023-03-13T13:43:32;12.50;99.90
8261;DHT22;64115;50.170;8.242;2023-03-13T13:46:02;12.60;99.90
8261;DHT22;64115;50.170;8.242;2023-03-13T13:48:34;12.70;99.90
8261;DHT22;64115;50.170;8.242;2023-03-13T13:51:23;12.80;99.90
8261;DHT22;64115;50.170;8.242;2023-03-13T13:53:52;12.90;99.90
8261;DHT22;64115;50.170;8.242;2023-03-13T13:56:38;12.90;99.90
8261;DHT22;64115;50.170;8.242;2023-03-13T13:59:25;13.00;99.90
8261;DHT22;64115;50.170;8.242;2023-03-13T14:02:19;12.90;99.90
8261;DHT22;64115;50.170;8.242;2023-03-13T14:04:50;12.90;99.90
8261;DHT22;64115;50.170;8.242;2023-03-13T14:07:24;12.80;99.90
8261;DHT22;64115;50.170;8.242;2023-03-13T14:10:05;12.70;99.90
8261;DHT22;64115;50.170;8.242;2023-03-13T14:12:34;12.70;99.90
8261;DHT22;64115;50.170;8.242;2023-03-13T14:15:14;12.70;99.90
8261;DHT22;64115;50.170;8.242;2023-03-13T14:17:42;12.80;99.90
8261;DHT22;64115;50.170;8.242;2023-03-13T14:20:34;12.80;99.90
8261;DHT22;64115;50.170;8.242;2023-03-13T14:23:05;12.70;99.90
8261;DHT22;64115;50.170;8.242;2023-03-13T14:25:44;12.60;99.90
8261;DHT22;64115;50.170;8.242;2023-03-13T14:28:17;12.50;99.90
8261;DHT22;64115;50.170;8.242;2023-03-13T14:30:45;12.40;99.90
8261;DHT22;64115;50.170;8.242;2023-03-13T14:33:12;12.30;99.90
8261;DHT22;64115;50.170;8.242;2023-03-13T14:35:40;12.20;99.90
8261;DHT22;64115;50.170;8.242;2023-03-13T14:38:17;12.00;99.90
8261;DHT22;64115;50.170;8.242;2023-03-13T14:40:45;11.90;99.90
8261;DHT22;64115;50.170;8.242;2023-03-13T14:43:19;11.80;99.90
8261;DHT22;64115;50.170;8.242;2023-03-13T14:45:47;11.80;99.90
8261;DHT22;64115;50.170;8.242;2023-03-13T14:48:19;11.70;99.90
8261;DHT22;64115;50.170;8.242;2023-03-13T14:50:48;11.60;99.90
8261;DHT22;64115;50.170;8.242;2023-03-13T14:53:19;11.50;99.90
8261;DHT22;64115;50.170;8.242;2023-03-13T14:55:56;11.50;99.90
8261;DHT22;64115;50.170;8.242;2023-03-13T14:58:35;11.40;99.90
8261;DHT22;64115;50.170;8.242;2023-03-13T15:01:13;11.30;99.90
8261;DHT22;64115;50.170;8.242;2023-03-13T15:03:43;11.30;99.90
8261;DHT22;64115;50.170;8.242;2023-03-13T15:06:18;11.20;99.90
8261;DHT22;64115;50.170;8.242;2023-03-13T15:08:48;11.10;99.90
8261;DHT22;64115;50.170;8.242;2023-03-13T15:11:27;11.10;99.90
8261;DHT22;64115;50.170;8.242;2023-03-13T15:13:55;11.10;99.90
8261;DHT22;64115;50.170;8.242;2023-03-13T15:16:23;11.10;99.90
8261;DHT22;64115;50.170;8.242;2023-03-13T15:18:52;11.10;99.90
8261;DHT22;64115;50.170;8.242;2023-03-13T15:21:23;11.10;99.90
8261;DHT22;64115;50.170;8.242;2023-03-13T15:23:53;11.10;99.90
8261;DHT22;64115;50.170;8.242;2023-03-13T15:26:22;11.10;99.90
8261;DHT22;64115;50.170;8.242;2023-03-13T15:28:49;11.10;99.90
8261;DHT22;64115;50.170;8.242;2023-03-13T15:31:18;11.10;99.90
8261;DHT22;64115;50.170;8.242;2023-03-13T15:33:47;11.10;99.90
8261;DHT22;64115;50.170;8.242;2023-03-13T15:36:16;11.10;99.90
8261;DHT22;64115;50.170;8.242;2023-03-13T15:38:43;11.10;99.90
8261;DHT22;64115;50.170;8.242;2023-03-13T15:41:12;11.10;99.90
8261;DHT22;64115;50.170;8.242;2023-03-13T15:43:39;11.10;99.90
8261;DHT22;64115;50.170;8.242;2023-03-13T15:46:10;11.10;99.90
8261;DHT22;64115;50.170;8.242;2023-03-13T15:48:38;11.10;99.90
8261;DHT22;64115;50.170;8.242;2023-03-13T15:51:08;11.10;99.90
8261;DHT22;64115;50.170;8.242;2023-03-13T15:53:36;11.10;99.90
8261;DHT22;64115;50.170;8.242;2023-03-13T15:56:14;11.10;99.90
8261;DHT22;64115;50.170;8.242;2023-03-13T15:58:42;11.10;99.90
8261;DHT22;64115;50.170;8.242;2023-03-13T16:01:10;11.20;99.90
8261;DHT22;64115;50.170;8.242;2023-03-13T16:03:38;11.30;99.90
8261;DHT22;64115;50.170;8.242;2023-03-13T16:06:13;11.30;99.90
8261;DHT22;64115;50.170;8.242;2023-03-13T16:08:41;11.50;99.90
8261;DHT22;64115;50.170;8.242;2023-03-13T16:11:13;11.70;99.90
8261;DHT22;64115;50.170;8.242;2023-03-13T16:13:41;11.80;99.90
8261;DHT22;64115;50.170;8.242;2023-03-13T16:16:17;11.90;99.90
8261;DHT22;64115;50.170;8.242;2023-03-13T16:18:45;11.90;99.90
8261;DHT22;64115;50.170;8.242;2023-03-13T16:21:16;11.90;99.90
8261;DHT22;64115;50.170;8.242;2023-03-13T16:23:44;11.90;99.90
8261;DHT22;64115;50.170;8.242;2023-03-13T16:26:14;11.90;99.90
8261;DHT22;64115;50.170;8.242;2023-03-13T16:28:42;11.90;99.90
8261;DHT22;64115;50.170;8.242;2023-03-13T16:31:15;11.90;99.90